Time;durP1;ratioP1;P1;durP2;ratioP2;P2;SDS_P1;SDS_P2;PMS_P1;PMS_P2;Temp;Humidity;BMP_temperature;BMP_pressure;BME280_temperature;BME280_humidity;BME280_pressure;Samples;Min_cycle;Max_cycle;Signal;HPM_P1;HPM_P2
2023/05/13 00:01:40;;;;;;;22.40;8.50;;;;;;;7.06;48.51;99715.14;104335;1269;98392;-79
2023/05/13 00:04:16;;;;;;;22.40;10.10;;;;;;;7.03;48.68;99715.27;104375;1267;97975;-81
2023/05/13 00:06:48;;;;;;;21.40;10.10;;;;;;;7.01;48.92;99710.27;104397;1268;110699;-78
2023/05/13 00:09:16;;;;;;;22.30;10.80;;;;;;;6.97;48.66;99713.59;104327;1269;98914;-77
2023/05/13 00:11:44;;;;;;;24.70;10.20;;;;;;;6.93;48.76;99714.87;104299;1270;107936;-76
2023/05/13 00:14:12;;;;;;;24.50;10.30;;;;;;;6.88;48.91;99715.98;104335;1269;98051;-78
2023/05/13 00:16:40;;;;;;;23.40;10.50;;;;;;;6.85;49.01;99713.69;104375;1269;98056;-82
2023/05/13 00:19:08;;;;;;;19.80;9.40;;;;;;;6.77;49.18;99714.02;104330;1278;111165;-77
2023/05/13 00:21:37;;;;;;;21.10;9.40;;;;;;;6.71;49.26;99710.25;104386;1267;98063;-78
2023/05/13 00:24:05;;;;;;;21.60;10.20;;;;;;;6.66;49.06;99717.71;104329;1273;107136;-79
2023/05/13 00:26:33;;;;;;;22.00;10.80;;;;;;;6.64;49.26;99720.82;104394;1268;99304;-77
2023/05/13 00:29:01;;;;;;;20.10;9.70;;;;;;;6.57;49.31;99721.27;104493;1268;97957;-79
2023/05/13 00:31:29;;;;;;;20.70;9.50;;;;;;;6.54;49.28;99714.16;104321;1267;110280;-77
2023/05/13 00:33:58;;;;;;;22.40;9.90;;;;;;;6.57;49.39;99717.92;104356;1267;98841;-79
2023/05/13 00:36:26;;;;;;;25.90;10.50;;;;;;;6.52;49.67;99719.23;104368;1268;107673;-77
2023/05/13 00:38:54;;;;;;;20.20;9.60;;;;;;;6.49;49.57;99717.80;104331;1267;98066;-78
2023/05/13 00:41:22;;;;;;;22.20;10.00;;;;;;;6.45;49.64;99716.36;104391;1267;97983;-79
2023/05/13 00:43:54;;;;;;;20.60;10.00;;;;;;;6.44;49.62;99721.54;104326;1285;111677;-78
2023/05/13 00:46:23;;;;;;;20.90;9.60;;;;;;;6.44;49.82;99719.94;104351;1269;98108;-77
2023/05/13 00:48:52;;;;;;;20.90;9.70;;;;;;;6.37;49.94;99724.45;104342;1271;107602;-78
2023/05/13 00:51:19;;;;;;;21.40;9.60;;;;;;;6.34;49.93;99721.42;104463;1264;98079;-77
2023/05/13 00:53:51;;;;;;;20.90;9.30;;;;;;;6.29;49.99;99729.57;104350;1270;97946;-76
2023/05/13 00:56:20;;;;;;;22.80;10.40;;;;;;;6.29;50.03;99729.59;104264;1267;111548;-78
2023/05/13 00:58:49;;;;;;;22.70;10.40;;;;;;;6.26;50.27;99729.70;104308;1267;97984;-77
2023/05/13 01:01:46;;;;;;;20.90;9.90;;;;;;;6.25;50.15;99729.06;104368;1269;106833;-78
2023/05/13 01:04:35;;;;;;;22.80;10.90;;;;;;;6.23;50.17;99735.09;104455;1268;98908;-77
2023/05/13 01:07:20;;;;;;;23.20;9.30;;;;;;;6.22;50.39;99729.16;104573;1279;99312;-78
2023/05/13 01:10:08;;;;;;;21.80;9.90;;;;;;;6.18;50.47;99730.75;106019;1264;111569;-77
2023/05/13 01:12:40;;;;;;;21.20;9.60;;;;;;;6.13;50.44;99729.23;105009;1267;97891;-77
2023/05/13 01:15:12;;;;;;;22.60;10.20;;;;;;;6.09;50.58;99729.36;104361;1267;107274;-77
2023/05/13 01:17:53;;;;;;;22.50;9.90;;;;;;;6.08;50.45;99728.56;104272;1277;97993;-78
2023/05/13 01:20:22;;;;;;;22.20;11.00;;;;;;;6.06;50.62;99726.36;104416;1276;98074;-76
2023/05/13 01:22:51;;;;;;;21.50;9.00;;;;;;;6.05;50.77;99730.11;104407;1267;110716;-75
2023/05/13 01:25:20;;;;;;;22.30;9.60;;;;;;;6.01;50.75;99730.09;104428;1267;98620;-75
2023/05/13 01:27:48;;;;;;;21.40;9.10;;;;;;;5.98;50.82;99728.58;105791;1263;106704;-76
2023/05/13 01:30:16;;;;;;;20.60;9.00;;;;;;;5.95;50.95;99729.96;104440;1267;99310;-76
2023/05/13 01:32:45;;;;;;;20.40;9.00;;;;;;;5.92;51.01;99730.98;104716;1267;97933;-76
2023/05/13 01:35:15;;;;;;;21.30;8.90;;;;;;;5.90;50.87;99733.86;104543;1277;110541;-76
2023/05/13 01:37:44;;;;;;;22.10;10.20;;;;;;;5.91;51.10;99734.02;104318;1276;99180;-78
2023/05/13 01:40:13;;;;;;;25.50;12.00;;;;;;;5.87;51.03;99736.13;104444;1264;106544;-79
2023/05/13 01:42:59;;;;;;;42.60;22.30;;;;;;;5.84;51.04;99733.59;104418;1276;97959;-78
2023/05/13 01:45:28;;;;;;;58.50;33.10;;;;;;;5.84;51.14;99736.95;104364;1265;97956;-79
2023/05/13 01:47:57;;;;;;;55.00;30.90;;;;;;;5.84;51.16;99734.84;104313;1269;112985;-78
2023/05/13 01:50:25;;;;;;;41.00;23.20;;;;;;;5.81;51.24;99733.89;104333;1270;97888;-77
2023/05/13 01:52:53;;;;;;;31.70;15.00;;;;;;;5.75;51.44;99734.64;104211;1281;107700;-78
2023/05/13 01:55:21;;;;;;;31.90;16.60;;;;;;;5.71;51.43;99734.99;104307;1270;97954;-77
2023/05/13 01:57:49;;;;;;;29.30;15.70;;;;;;;5.66;51.49;99735.91;104375;1269;97999;-78
2023/05/13 02:00:18;;;;;;;27.00;14.10;;;;;;;5.61;51.62;99739.80;104318;1270;110433;-77
2023/05/13 02:02:47;;;;;;;26.30;12.40;;;;;;;5.59;51.54;99735.16;104388;1267;97972;-77
2023/05/13 02:05:15;;;;;;;28.00;12.40;;;;;;;5.58;51.58;99736.44;104349;1276;107713;-78
2023/05/13 02:07:44;;;;;;;24.50;11.20;;;;;;;5.58;51.67;99733.41;104246;1272;97991;-79
2023/05/13 02:10:12;;;;;;;23.20;10.70;;;;;;;5.53;51.73;99732.77;104321;1267;99186;-80
2023/05/13 02:12:39;;;;;;;23.40;11.30;;;;;;;5.50;51.54;99733.79;104364;1267;110615;-78
2023/05/13 02:15:08;;;;;;;27.50;11.10;;;;;;;5.52;51.92;99728.92;104308;1268;98038;-79
2023/05/13 02:17:39;;;;;;;20.40;10.40;;;;;;;5.48;51.98;99731.02;104288;1267;106847;-78
2023/05/13 02:20:08;;;;;;;21.60;9.40;;;;;;;5.44;51.91;99730.83;104357;1276;97996;-77
2023/05/13 02:22:36;;;;;;;24.50;9.90;;;;;;;5.40;52.01;99731.69;104365;1267;98029;-80
2023/05/13 02:25:04;;;;;;;22.90;9.80;;;;;;;5.34;51.96;99733.70;104290;1268;110118;-77
2023/05/13 02:27:32;;;;;;;23.50;9.70;;;;;;;5.27;52.06;99735.05;104278;1279;98090;-79
2023/05/13 02:30:00;;;;;;;20.40;9.70;;;;;;;5.25;52.17;99738.82;104272;1264;107563;-79
2023/05/13 02:32:29;;;;;;;26.70;10.60;;;;;;;5.24;52.15;99743.27;104407;1274;98061;-77
2023/05/13 02:34:59;;;;;;;21.30;9.40;;;;;;;5.28;52.35;99741.17;104259;1267;99202;-79
2023/05/13 02:37:27;;;;;;;22.80;10.00;;;;;;;5.27;52.37;99748.77;104291;1272;110127;-76
2023/05/13 02:39:55;;;;;;;22.50;10.30;;;;;;;5.26;52.31;99748.99;104356;1267;98017;-78
2023/05/13 02:42:23;;;;;;;22.40;10.10;;;;;;;5.28;52.50;99746.63;104296;1281;107348;-78
2023/05/13 02:44:51;;;;;;;21.10;9.70;;;;;;;5.21;52.43;99754.09;104314;1270;98905;-78
2023/05/13 02:47:20;;;;;;;24.20;10.80;;;;;;;5.18;52.52;99749.61;104354;1267;97983;-77
2023/05/13 02:49:48;;;;;;;22.10;10.80;;;;;;;5.22;52.62;99747.89;104314;1268;110807;-77
2023/05/13 02:52:16;;;;;;;23.30;9.60;;;;;;;5.23;52.67;99751.56;104313;1267;98048;-79
2023/05/13 02:54:44;;;;;;;22.80;11.10;;;;;;;5.25;52.74;99752.91;104316;1270;106733;-77
2023/05/13 02:57:12;;;;;;;21.30;10.50;;;;;;;5.22;52.83;99757.74;104295;1267;98122;-76
2023/05/13 02:59:41;;;;;;;23.10;10.30;;;;;;;5.22;52.88;99756.34;104299;1279;98041;-78
2023/05/13 03:02:09;;;;;;;23.20;10.40;;;;;;;5.29;52.85;99757.67;104352;1275;110369;-77
2023/05/13 03:04:40;;;;;;;23.20;10.50;;;;;;;5.39;52.97;99756.89;104303;1267;97964;-78
2023/05/13 03:07:08;;;;;;;23.30;10.40;;;;;;;5.46;52.99;99760.48;104289;1267;107199;-82
2023/05/13 03:09:38;;;;;;;23.80;10.10;;;;;;;5.51;53.20;99763.80;104299;1279;99199;-81
2023/05/13 03:12:07;;;;;;;21.40;10.30;;;;;;;5.52;53.28;99761.47;104340;1267;99342;-78
2023/05/13 03:14:35;;;;;;;20.50;9.70;;;;;;;5.52;53.09;99765.34;104269;1264;110218;-80
2023/05/13 03:17:05;;;;;;;22.60;10.60;;;;;;;5.54;53.41;99764.89;104377;1267;98115;-77
2023/05/13 03:19:36;;;;;;;19.60;9.60;;;;;;;5.54;53.13;99765.41;104282;1268;108742;-78
2023/05/13 03:22:05;;;;;;;23.60;10.30;;;;;;;5.58;53.45;99767.05;104289;1264;97961;-78
2023/05/13 03:24:33;;;;;;;25.70;10.90;;;;;;;5.57;53.47;99768.83;104302;1267;97965;-78
2023/05/13 03:27:01;;;;;;;28.40;12.10;;;;;;;5.62;53.66;99773.75;104316;1267;111588;-78
2023/05/13 03:29:29;;;;;;;21.80;10.20;;;;;;;5.73;53.97;99775.38;104330;1275;98064;-77
2023/05/13 03:31:57;;;;;;;25.70;12.10;;;;;;;5.82;54.01;99775.55;104318;1264;106742;-78
2023/05/13 03:37:33;;;;;;;27.90;13.50;;;;;;;6.02;54.13;99771.60;104312;1267;97968;-78
2023/05/13 03:40:01;;;;;;;28.30;13.60;;;;;;;6.12;54.07;99773.64;104316;1268;110440;-77
2023/05/13 03:42:29;;;;;;;28.60;13.50;;;;;;;6.25;54.38;99774.69;104290;1264;97983;-77
2023/05/13 03:44:57;;;;;;;28.00;13.30;;;;;;;6.35;54.33;99776.52;104410;1267;108019;-79
2023/05/13 03:47:25;;;;;;;26.10;12.40;;;;;;;6.44;54.44;99776.48;104297;1269;99317;-78
2023/05/13 03:49:53;;;;;;;25.80;12.60;;;;;;;6.52;54.42;99780.36;104358;1264;98021;-77
2023/05/13 03:52:22;;;;;;;28.10;13.70;;;;;;;6.62;54.62;99778.16;104303;1264;112404;-77
2023/05/13 03:54:50;;;;;;;28.60;14.70;;;;;;;6.73;54.52;99779.07;104341;1267;98019;-78
2023/05/13 03:57:35;;;;;;;30.10;14.20;;;;;;;6.87;54.43;99776.50;104256;1264;107952;-78
2023/05/13 04:00:04;;;;;;;28.30;14.60;;;;;;;7.01;54.64;99780.45;104297;1278;97998;-78
2023/05/13 04:02:33;;;;;;;29.10;14.60;;;;;;;7.14;54.69;99782.83;104321;1267;97894;-77
2023/05/13 04:05:01;;;;;;;29.60;15.10;;;;;;;7.28;54.51;99783.42;104384;1264;112574;-77
2023/05/13 04:07:29;;;;;;;28.60;14.40;;;;;;;7.40;55.06;99784.98;104361;1267;97988;-80
2023/05/13 04:09:56;;;;;;;30.40;14.50;;;;;;;7.50;54.84;99783.81;104301;1265;107136;-81
2023/05/13 04:12:24;;;;;;;28.80;13.60;;;;;;;7.58;54.69;99787.46;104299;1267;97970;-78
2023/05/13 04:14:53;;;;;;;29.20;13.50;;;;;;;7.65;54.58;99791.02;104319;1267;98089;-77
2023/05/13 04:17:21;;;;;;;25.90;12.70;;;;;;;7.70;54.55;99789.18;104313;1267;112537;-79
2023/05/13 04:19:52;;;;;;;24.30;11.30;;;;;;;7.75;54.74;99789.45;104301;1264;97949;-78
2023/05/13 04:22:20;;;;;;;24.60;11.10;;;;;;;7.79;55.18;99789.06;104327;1264;108740;-78
2023/05/13 04:24:50;;;;;;;24.90;11.80;;;;;;;7.85;55.27;99792.70;104353;1267;97981;-76
2023/05/13 04:27:18;;;;;;;25.80;11.00;;;;;;;7.90;55.34;99796.83;108124;1263;95607;-79
2023/05/13 04:29:46;;;;;;;22.40;11.10;;;;;;;7.96;55.32;99794.59;108095;1263;110081;-76
2023/05/13 04:32:20;;;;;;;25.40;10.70;;;;;;;8.04;55.30;99796.69;108116;1263;96013;-77
2023/05/13 04:34:48;;;;;;;22.10;9.90;;;;;;;8.13;55.49;99800.48;108094;1263;107812;-77
2023/05/13 04:37:16;;;;;;;25.80;10.60;;;;;;;8.24;55.49;99803.29;108052;1263;95783;-77
2023/05/13 04:39:45;;;;;;;21.90;10.20;;;;;;;8.34;55.42;99801.84;108080;1263;95628;-77
2023/05/13 04:42:15;;;;;;;21.90;10.40;;;;;;;8.47;55.40;99797.89;108119;1263;111640;-77
2023/05/13 04:44:44;;;;;;;23.20;10.80;;;;;;;8.58;55.53;99798.38;108093;1263;95631;-77
2023/05/13 04:47:11;;;;;;;23.80;10.70;;;;;;;8.70;55.68;99797.39;108081;1263;108875;-77
2023/05/13 04:49:39;;;;;;;24.80;11.30;;;;;;;8.81;55.68;99796.27;108108;1263;95650;-77
2023/05/13 04:52:07;;;;;;;22.30;10.30;;;;;;;8.93;55.67;99798.99;108092;1263;95530;-77
2023/05/13 04:54:37;;;;;;;22.10;10.60;;;;;;;9.10;56.09;99797.20;108052;1263;111316;-77
2023/05/13 04:57:06;;;;;;;21.40;9.90;;;;;;;9.26;55.85;99800.38;108113;1263;95712;-77
2023/05/13 04:59:34;;;;;;;19.00;9.10;;;;;;;9.35;55.82;99800.76;108104;1263;107812;-77
2023/05/13 05:02:02;;;;;;;21.80;9.80;;;;;;;9.42;55.78;99798.78;108042;1263;95739;-77
2023/05/13 05:04:30;;;;;;;22.80;10.00;;;;;;;9.50;55.74;99800.64;108087;1263;95636;-77
2023/05/13 05:06:58;;;;;;;20.80;10.10;;;;;;;9.59;55.92;99804.59;108076;1263;110380;-77
2023/05/13 05:09:26;;;;;;;22.40;9.60;;;;;;;9.66;55.78;99803.62;108112;1263;96043;-77
2023/05/13 05:11:54;;;;;;;21.00;9.40;;;;;;;9.72;55.94;99803.30;108099;1263;106876;-77
2023/05/13 05:14:22;;;;;;;22.50;9.40;;;;;;;9.79;56.10;99803.62;108057;1263;95911;-77
2023/05/13 05:16:50;;;;;;;23.20;9.60;;;;;;;9.87;56.03;99805.31;108081;1263;96004;-77
2023/05/13 05:19:22;;;;;;;18.00;8.10;;;;;;;9.95;56.07;99806.23;108064;1263;112509;-77
2023/05/13 05:21:51;;;;;;;19.10;8.40;;;;;;;10.05;56.33;99805.27;108087;1263;96174;-77
2023/05/13 05:24:19;;;;;;;22.00;8.00;;;;;;;10.16;56.13;99806.11;107997;1263;106710;-77
2023/05/13 05:26:47;;;;;;;16.40;6.80;;;;;;;10.27;56.10;99802.77;108076;1263;95569;-77
2023/05/13 05:29:15;;;;;;;15.60;7.00;;;;;;;10.39;56.09;99802.29;108097;1263;95671;-77
2023/05/13 05:31:43;;;;;;;15.00;6.90;;;;;;;10.51;55.97;99804.94;108068;1263;111531;-77
2023/05/13 05:34:11;;;;;;;16.30;7.50;;;;;;;10.61;56.04;99803.23;108101;1263;95691;-78
2023/05/13 05:36:39;;;;;;;19.80;7.80;;;;;;;10.71;56.11;99806.02;108055;1263;108039;-77
2023/05/13 05:39:07;;;;;;;18.70;8.10;;;;;;;10.78;56.10;99803.46;108047;1263;95598;-77
2023/05/13 05:41:35;;;;;;;22.00;9.40;;;;;;;10.83;56.06;99808.45;108042;1263;95678;-77
2023/05/13 05:44:03;;;;;;;21.70;9.30;;;;;;;10.85;56.05;99804.29;108090;1263;110393;-77
2023/05/13 05:46:31;;;;;;;25.70;9.30;;;;;;;10.84;56.21;99808.04;108141;1264;95756;-77
2023/05/13 05:48:59;;;;;;;19.70;8.30;;;;;;;10.83;56.17;99808.83;108077;1263;106681;-77
2023/05/13 05:51:27;;;;;;;16.70;7.50;;;;;;;10.84;56.24;99807.52;108044;1263;95620;-77
2023/05/13 05:53:55;;;;;;;18.70;8.20;;;;;;;10.87;56.24;99807.17;108134;1263;95625;-77
2023/05/13 05:56:23;;;;;;;17.10;6.80;;;;;;;10.91;56.18;99810.14;108075;1263;112479;-77
2023/05/13 05:58:51;;;;;;;19.70;8.10;;;;;;;10.94;56.28;99811.88;108103;1263;95838;-77
2023/05/13 06:01:19;;;;;;;22.00;7.90;;;;;;;10.99;56.30;99809.09;108066;1263;107949;-78
2023/05/13 06:03:47;;;;;;;20.90;9.00;;;;;;;11.04;56.33;99808.76;108059;1263;95574;-77
2023/05/13 06:06:15;;;;;;;23.20;8.80;;;;;;;11.11;56.28;99814.05;108080;1263;95954;-77
2023/05/13 06:08:43;;;;;;;22.90;8.90;;;;;;;11.15;56.45;99815.19;108112;1263;110473;-77
2023/05/13 06:11:11;;;;;;;19.20;7.70;;;;;;;11.21;56.41;99812.89;108085;1263;95634;-77
2023/05/13 06:13:39;;;;;;;20.60;8.50;;;;;;;11.26;56.36;99813.08;108105;1263;108842;-77
2023/05/13 06:16:06;;;;;;;20.30;8.80;;;;;;;11.33;56.52;99814.08;108083;1263;96100;-77
2023/05/13 06:18:34;;;;;;;21.90;9.10;;;;;;;11.39;56.47;99816.92;108115;1263;95638;-77
2023/05/13 06:21:02;;;;;;;19.20;8.80;;;;;;;11.45;56.53;99818.77;108097;1263;111513;-78
2023/05/13 06:23:30;;;;;;;22.20;9.10;;;;;;;11.55;56.51;99817.15;108124;1263;95618;-77
2023/05/13 06:25:59;;;;;;;20.30;8.70;;;;;;;11.64;56.57;99818.33;108114;1262;108747;-78
2023/05/13 06:28:27;;;;;;;20.10;8.00;;;;;;;11.73;56.72;99822.48;108089;1263;95608;-77
2023/05/13 06:30:55;;;;;;;24.80;8.50;;;;;;;11.81;56.59;99820.42;108013;1263;95626;-77
2023/05/13 06:33:23;;;;;;;21.80;8.80;;;;;;;11.88;56.61;99818.16;108079;1263;110953;-77
2023/05/13 06:35:52;;;;;;;21.90;7.90;;;;;;;11.94;56.59;99813.49;108048;1263;95793;-77
2023/05/13 06:38:20;;;;;;;19.10;7.20;;;;;;;12.02;56.60;99810.52;108000;1263;108862;-77
2023/05/13 06:40:48;;;;;;;19.20;7.30;;;;;;;12.14;56.81;99806.73;108011;1263;95665;-77
2023/05/13 06:43:16;;;;;;;17.20;7.50;;;;;;;12.27;56.62;99808.49;108054;1263;95588;-77
2023/05/13 06:45:44;;;;;;;11.10;5.20;;;;;;;12.39;56.66;99802.88;108040;1263;111369;-78
2023/05/13 06:48:12;;;;;;;14.60;5.40;;;;;;;12.54;56.55;99803.48;108104;1263;95850;-77
2023/05/13 06:50:40;;;;;;;12.80;5.30;;;;;;;12.68;56.52;99803.41;108086;1263;108027;-77
2023/05/13 06:53:12;;;;;;;14.20;5.50;;;;;;;12.83;56.53;99803.61;108060;1263;95711;-77
2023/05/13 06:55:41;;;;;;;13.20;5.70;;;;;;;12.95;56.47;99802.93;107989;1263;95678;-78
2023/05/13 06:58:09;;;;;;;13.30;5.50;;;;;;;13.03;56.49;99796.91;107979;1263;112494;-77
2023/05/13 07:00:39;;;;;;;13.70;5.50;;;;;;;13.10;56.43;99794.61;108023;1264;96058;-77
2023/05/13 07:03:07;;;;;;;13.10;4.90;;;;;;;13.23;56.44;99792.04;108021;1263;107921;-77
2023/05/13 07:05:35;;;;;;;9.90;4.40;;;;;;;13.35;56.24;99791.00;108002;1263;95592;-77
2023/05/13 07:08:07;;;;;;;10.20;4.10;;;;;;;13.44;55.81;99792.13;108047;1263;95650;-77
2023/05/13 07:10:35;;;;;;;12.30;4.50;;;;;;;13.55;55.93;99793.33;108089;1263;110752;-77
2023/05/13 07:13:03;;;;;;;13.00;4.50;;;;;;;13.62;55.88;99790.54;108100;1263;95725;-77
2023/05/13 07:15:31;;;;;;;9.70;4.60;;;;;;;13.69;55.94;99788.91;108091;1263;107882;-77
2023/05/13 07:17:59;;;;;;;6.40;3.70;;;;;;;13.75;55.77;99785.30;108079;1263;95641;-77
2023/05/13 07:20:28;;;;;;;11.80;4.10;;;;;;;13.83;55.75;99787.01;108092;1263;95552;-77
2023/05/13 07:22:56;;;;;;;10.60;4.30;;;;;;;13.93;55.70;99781.98;108095;1263;112560;-77
2023/05/13 07:25:24;;;;;;;11.20;4.40;;;;;;;13.97;55.53;99780.77;108100;1263;95641;-76
2023/05/13 07:27:51;;;;;;;12.50;4.60;;;;;;;14.04;55.50;99780.67;108076;1263;105794;-76
2023/05/13 07:30:20;;;;;;;10.40;4.00;;;;;;;14.09;55.49;99782.04;108056;1263;95674;-75
2023/05/13 07:32:48;;;;;;;6.90;3.70;;;;;;;14.15;55.28;99782.84;108114;1263;95698;-76
2023/05/13 07:35:19;;;;;;;10.50;4.50;;;;;;;14.21;55.05;99781.89;108087;1263;111619;-77
2023/05/13 07:37:47;;;;;;;7.70;3.70;;;;;;;14.24;55.06;99787.89;108144;1263;95806;-77
2023/05/13 07:40:16;;;;;;;11.90;3.60;;;;;;;14.28;54.94;99787.75;108082;1263;108881;-77
2023/05/13 07:42:44;;;;;;;10.70;4.10;;;;;;;14.33;54.85;99784.88;108023;1264;95634;-77
2023/05/13 07:45:12;;;;;;;7.20;3.50;;;;;;;14.39;54.63;99782.08;108064;1264;95706;-74
2023/05/13 07:47:40;;;;;;;5.90;3.70;;;;;;;14.47;54.74;99780.54;108035;1264;111040;-74
2023/05/13 07:50:11;;;;;;;10.70;3.70;;;;;;;14.55;54.81;99782.80;107980;1264;95844;-74
2023/05/13 07:52:39;;;;;;;7.30;3.30;;;;;;;14.62;54.74;99781.44;108070;1264;106929;-76
2023/05/13 07:55:07;;;;;;;12.20;4.70;;;;;;;14.64;54.52;99776.98;108023;1263;95855;-77
2023/05/13 07:57:36;;;;;;;9.40;3.80;;;;;;;14.74;54.41;99775.28;107947;1264;95877;-77
2023/05/13 08:00:05;;;;;;;10.20;3.70;;;;;;;14.82;54.03;99766.80;107971;1263;110537;-77
2023/05/13 08:02:33;;;;;;;6.90;3.30;;;;;;;14.92;54.30;99767.80;107973;1264;95648;-78
2023/05/13 08:05:02;;;;;;;7.80;2.80;;;;;;;14.97;54.22;99762.78;107954;1263;107726;-77
2023/05/13 08:07:29;;;;;;;7.00;3.20;;;;;;;15.04;54.21;99759.02;107907;1265;95756;-76
2023/05/13 08:09:57;;;;;;;5.40;2.40;;;;;;;15.09;53.78;99760.55;107960;1264;95741;-78
2023/05/13 08:12:25;;;;;;;9.10;3.10;;;;;;;15.17;54.04;99763.17;107965;1265;112509;-76
2023/05/13 08:18:01;;;;;;;6.00;2.50;;;;;;;15.31;53.30;99771.64;102217;1290;636047;-77
2023/05/13 08:20:29;;;;;;;6.70;3.00;;;;;;;15.29;52.66;99772.69;104331;1270;94321;-77
2023/05/13 08:22:57;;;;;;;6.30;2.80;;;;;;;15.30;52.76;99773.02;104347;1269;94411;-78
2023/05/13 08:25:25;;;;;;;7.80;2.70;;;;;;;15.31;52.93;99764.48;104300;1269;107238;-77
2023/05/13 08:27:53;;;;;;;4.60;2.90;;;;;;;15.36;52.76;99771.29;104427;1269;94408;-77
2023/05/13 08:30:21;;;;;;;5.80;3.20;;;;;;;15.41;52.26;99765.91;104395;1270;107584;-76
2023/05/13 08:32:49;;;;;;;9.60;3.10;;;;;;;15.40;51.96;99771.09;104386;1276;148120;-76
2023/05/13 08:35:18;;;;;;;8.00;2.90;;;;;;;15.39;52.00;99771.90;104468;1266;94276;-78
2023/05/13 08:37:46;;;;;;;8.60;3.00;;;;;;;15.36;51.55;99775.91;104484;1266;108488;-80
2023/05/13 08:40:14;;;;;;;7.50;3.10;;;;;;;15.33;51.92;99769.52;104492;1266;95042;-79
2023/05/13 08:42:46;;;;;;;8.60;3.10;;;;;;;15.36;51.63;99764.45;104565;1269;108865;-79
2023/05/13 08:45:17;;;;;;;14.50;3.30;;;;;;;15.40;51.29;99754.55;104701;1264;96119;-78
2023/05/13 08:47:55;;;;;;;6.00;2.90;;;;;;;15.42;51.43;99762.41;104448;1267;96179;-80
2023/05/13 08:50:24;;;;;;;6.70;3.00;;;;;;;15.48;51.61;99762.05;104490;1266;109051;-77
2023/05/13 08:52:52;;;;;;;7.70;2.60;;;;;;;15.56;51.49;99759.80;104495;1267;95291;-79
2023/05/13 08:55:22;;;;;;;7.50;2.80;;;;;;;15.60;50.57;99761.27;104417;1285;106889;-78
2023/05/13 08:57:51;;;;;;;6.50;2.60;;;;;;;15.62;50.49;99759.34;104428;1267;95259;-79
2023/05/13 09:00:20;;;;;;;6.00;2.80;;;;;;;15.62;50.68;99758.06;105108;1260;95245;-80
2023/05/13 09:02:49;;;;;;;3.80;2.60;;;;;;;15.58;50.56;99753.00;105106;1259;108544;-80
2023/05/13 09:05:18;;;;;;;9.30;2.50;;;;;;;15.54;50.50;99752.14;105098;1260;96595;-79
2023/05/13 09:07:47;;;;;;;6.10;2.90;;;;;;;15.54;50.40;99753.73;105060;1257;107886;-79
2023/05/13 09:10:16;;;;;;;9.30;2.60;;;;;;;15.57;50.20;99744.38;105546;1257;95246;-76
2023/05/13 09:12:50;;;;;;;7.60;2.40;;;;;;;15.65;49.63;99744.96;105155;1258;95188;-77
2023/05/13 09:15:21;;;;;;;11.90;3.00;;;;;;;15.73;49.88;99744.13;105123;1260;109635;-78
2023/05/13 09:17:53;;;;;;;5.50;2.90;;;;;;;15.71;49.56;99737.66;106555;1261;95227;-78
2023/05/13 09:20:24;;;;;;;8.00;2.90;;;;;;;15.67;49.47;99733.73;104759;1263;108872;-79
2023/05/13 09:22:59;;;;;;;4.70;2.30;;;;;;;15.66;48.93;99732.75;104873;1257;95348;-79
2023/05/13 09:25:29;;;;;;;11.70;3.50;;;;;;;15.65;48.63;99737.11;104742;1269;95279;-79
2023/05/13 09:28:00;;;;;;;10.40;3.70;;;;;;;15.67;48.96;99735.86;104843;1259;110350;-80
2023/05/13 09:30:32;;;;;;;6.30;2.50;;;;;;;15.69;48.83;99733.16;104844;1259;95240;-80
2023/05/13 09:33:14;;;;;;;7.00;2.30;;;;;;;15.71;48.92;99734.98;104901;1260;107616;-79
2023/05/13 09:35:53;;;;;;;7.80;2.70;;;;;;;15.72;48.56;99725.09;104866;1259;95257;-79
2023/05/13 09:38:26;;;;;;;5.20;2.50;;;;;;;15.72;48.80;99726.84;104886;1259;95173;-85
2023/05/13 09:40:56;;;;;;;11.80;3.40;;;;;;;15.77;48.21;99729.61;105141;1259;107792;-79
2023/05/13 09:43:26;;;;;;;8.40;2.90;;;;;;;15.82;47.96;99726.80;105086;1260;95298;-79
2023/05/13 09:45:56;;;;;;;5.50;2.70;;;;;;;15.85;48.08;99725.27;105061;1257;106193;-78
2023/05/13 09:48:26;;;;;;;4.90;2.80;;;;;;;15.94;47.77;99729.71;105178;1257;96079;-79
2023/05/13 09:50:56;;;;;;;4.70;2.80;;;;;;;16.05;47.51;99728.59;105103;1267;96192;-79
2023/05/13 09:53:26;;;;;;;9.60;2.60;;;;;;;16.22;48.13;99736.27;105124;1258;107788;-80
2023/05/13 09:55:56;;;;;;;15.00;2.70;;;;;;;16.50;47.86;99730.52;105140;1266;95269;-79
2023/05/13 09:58:27;;;;;;;4.30;2.40;;;;;;;16.69;47.97;99728.65;105144;1257;106929;-78
2023/05/13 10:00:56;;;;;;;7.20;3.20;;;;;;;16.75;47.87;99726.71;105222;1260;95246;-77
2023/05/13 10:03:24;;;;;;;5.40;2.80;;;;;;;16.81;47.32;99729.77;108829;1254;93367;-75
2023/05/13 10:05:53;;;;;;;5.50;2.80;;;;;;;16.82;47.42;99724.48;106152;1257;109810;-77
2023/05/13 10:08:23;;;;;;;8.50;2.70;;;;;;;16.82;47.51;99726.06;105126;1260;95874;-78
2023/05/13 10:10:55;;;;;;;4.40;2.70;;;;;;;16.91;47.49;99722.08;105392;1260;106776;-80
2023/05/13 10:13:23;;;;;;;5.50;2.60;;;;;;;16.92;47.28;99719.08;106928;1254;95240;-77
2023/05/13 10:15:54;;;;;;;9.80;2.90;;;;;;;16.78;46.89;99718.02;108820;1251;92919;-78
2023/05/13 10:18:23;;;;;;;6.80;2.80;;;;;;;16.57;47.05;99717.02;106264;1255;108779;-76
2023/05/13 10:20:54;;;;;;;7.40;3.10;;;;;;;16.45;46.81;99715.36;105588;1256;95308;-77
2023/05/13 10:23:22;;;;;;;8.80;3.00;;;;;;;16.42;46.95;99716.52;105367;1251;107233;-76
2023/05/13 10:25:53;;;;;;;11.30;3.10;;;;;;;16.37;47.10;99717.29;105393;1274;95233;-75
2023/05/13 10:28:24;;;;;;;9.30;3.00;;;;;;;16.26;46.77;99713.80;105565;1252;95213;-79
2023/05/13 10:30:51;;;;;;;5.20;2.70;;;;;;;16.18;46.63;99713.75;105432;1261;108853;-79
2023/05/13 10:33:20;;;;;;;9.70;2.80;;;;;;;16.18;46.89;99711.23;105395;1256;96154;-79
2023/05/13 10:36:26;;;;;;;6.50;3.10;;;;;;;16.19;46.74;99708.22;105367;1256;107223;-79
2023/05/13 10:39:19;;;;;;;7.60;2.80;;;;;;;16.16;46.39;99706.02;105381;1256;96085;-79
2023/05/13 10:41:56;;;;;;;5.50;2.90;;;;;;;16.08;46.22;99711.52;105276;1260;95323;-76
2023/05/13 10:44:25;;;;;;;3.40;2.40;;;;;;;16.03;46.32;99709.63;105776;1251;108767;-76
2023/05/13 10:46:55;;;;;;;8.60;3.20;;;;;;;16.05;46.40;99709.30;105222;1257;96173;-76
2023/05/13 10:49:26;;;;;;;4.50;2.70;;;;;;;16.11;46.36;99712.91;105170;1265;107678;-76
2023/05/13 10:52:04;;;;;;;5.80;2.80;;;;;;;16.15;46.14;99716.32;105304;1264;95244;-77
2023/05/13 10:54:38;;;;;;;8.00;2.80;;;;;;;16.23;46.12;99715.13;105292;1252;95242;-76
2023/05/13 10:57:07;;;;;;;7.90;3.10;;;;;;;16.25;46.10;99716.36;105341;1257;108830;-77
2023/05/13 10:59:36;;;;;;;8.80;2.90;;;;;;;16.27;46.15;99718.18;105561;1264;95342;-76
2023/05/13 11:02:21;;;;;;;5.70;3.00;;;;;;;16.30;46.12;99715.36;105366;1270;107626;-77
2023/05/13 11:05:00;;;;;;;4.80;2.60;;;;;;;16.38;45.93;99715.36;105657;1256;95184;-76
2023/05/13 11:07:28;;;;;;;9.30;2.80;;;;;;;16.52;45.97;99719.63;105482;1260;95252;-76
2023/05/13 11:09:58;;;;;;;6.30;3.50;;;;;;;16.61;45.88;99721.70;105460;1260;108770;-79
2023/05/13 11:12:26;;;;;;;6.40;3.30;;;;;;;16.63;45.82;99721.52;105372;1255;95237;-78
2023/05/13 11:14:57;;;;;;;9.50;3.70;;;;;;;16.65;45.94;99724.52;105199;1256;107643;-79
2023/05/13 11:17:25;;;;;;;4.90;2.70;;;;;;;16.71;45.83;99724.55;105154;1258;95262;-78
2023/05/13 11:19:55;;;;;;;7.10;3.10;;;;;;;16.85;45.91;99724.40;105156;1257;96104;-78
2023/05/13 11:22:23;;;;;;;5.10;2.80;;;;;;;17.07;45.72;99725.36;105232;1255;108563;-77
2023/05/13 11:25:08;;;;;;;10.50;3.20;;;;;;;17.32;45.45;99721.49;105135;1267;95197;-77
2023/05/13 11:27:41;;;;;;;8.10;3.20;;;;;;;17.57;45.52;99724.77;105242;1257;106777;-78
2023/05/13 11:30:25;;;;;;;4.80;2.90;;;;;;;17.71;45.48;99728.34;105221;1257;95823;-77
2023/05/13 11:32:58;;;;;;;7.10;2.80;;;;;;;17.84;45.34;99725.75;105183;1255;96366;-77
2023/05/13 11:35:27;;;;;;;7.40;3.00;;;;;;;17.93;45.46;99725.84;105265;1258;109714;-78